sensor_id;sensor_type;location;lat;lon;timestamp;P1;durP1;ratioP1;P2;durP2;ratioP2
52456;SDS011;38369;52.840;7.082;2023-09-18T00:00:48;28.42;;;25.50;;
52456;SDS011;38369;52.840;7.082;2023-09-18T00:03:18;27.88;;;24.90;;
52456;SDS011;38369;52.840;7.082;2023-09-18T00:05:48;33.92;;;27.63;;
52456;SDS011;38369;52.840;7.082;2023-09-18T00:08:15;29.30;;;26.23;;
52456;SDS011;38369;52.840;7.082;2023-09-18T00:10:41;27.65;;;24.83;;
52456;SDS011;38369;52.840;7.082;2023-09-18T00:13:08;34.40;;;27.52;;
52456;SDS011;38369;52.840;7.082;2023-09-18T00:15:34;29.17;;;25.95;;
52456;SDS011;38369;52.840;7.082;2023-09-18T00:18:02;31.48;;;28.08;;
52456;SDS011;38369;52.840;7.082;2023-09-18T00:20:28;31.67;;;28.30;;
52456;SDS011;38369;52.840;7.082;2023-09-18T00:22:54;31.92;;;28.48;;
52456;SDS011;38369;52.840;7.082;2023-09-18T00:25:21;33.95;;;30.50;;
52456;SDS011;38369;52.840;7.082;2023-09-18T00:27:47;30.90;;;27.63;;
52456;SDS011;38369;52.840;7.082;2023-09-18T00:30:13;32.72;;;29.50;;
52456;SDS011;38369;52.840;7.082;2023-09-18T00:32:39;32.95;;;29.48;;
52456;SDS011;38369;52.840;7.082;2023-09-18T00:35:06;29.77;;;26.92;;
52456;SDS011;38369;52.840;7.082;2023-09-18T00:37:32;32.83;;;28.77;;
52456;SDS011;38369;52.840;7.082;2023-09-18T00:39:58;30.50;;;27.50;;
52456;SDS011;38369;52.840;7.082;2023-09-18T00:42:24;31.35;;;27.95;;
52456;SDS011;38369;52.840;7.082;2023-09-18T00:44:50;28.58;;;25.60;;
52456;SDS011;38369;52.840;7.082;2023-09-18T00:47:16;30.27;;;27.27;;
52456;SDS011;38369;52.840;7.082;2023-09-18T00:49:43;28.65;;;25.85;;
52456;SDS011;38369;52.840;7.082;2023-09-18T00:52:10;29.67;;;26.02;;
52456;SDS011;38369;52.840;7.082;2023-09-18T00:54:37;31.13;;;27.85;;
52456;SDS011;38369;52.840;7.082;2023-09-18T00:57:03;28.90;;;26.05;;
52456;SDS011;38369;52.840;7.082;2023-09-18T00:59:30;31.48;;;28.15;;
52456;SDS011;38369;52.840;7.082;2023-09-18T01:01:56;30.38;;;27.27;;
52456;SDS011;38369;52.840;7.082;2023-09-18T01:04:22;29.42;;;26.38;;
52456;SDS011;38369;52.840;7.082;2023-09-18T01:06:50;27.60;;;24.98;;
52456;SDS011;38369;52.840;7.082;2023-09-18T01:09:19;29.23;;;26.02;;
52456;SDS011;38369;52.840;7.082;2023-09-18T01:11:57;29.30;;;26.35;;
52456;SDS011;38369;52.840;7.082;2023-09-18T01:16:53;31.15;;;27.90;;
52456;SDS011;38369;52.840;7.082;2023-09-18T01:19:38;27.30;;;24.23;;
52456;SDS011;38369;52.840;7.082;2023-09-18T01:22:07;30.30;;;27.02;;
52456;SDS011;38369;52.840;7.082;2023-09-18T01:24:34;30.77;;;26.75;;
52456;SDS011;38369;52.840;7.082;2023-09-18T01:27:01;29.33;;;24.70;;
52456;SDS011;38369;52.840;7.082;2023-09-18T01:29:29;28.23;;;25.02;;
52456;SDS011;38369;52.840;7.082;2023-09-18T01:31:55;25.15;;;22.50;;
52456;SDS011;38369;52.840;7.082;2023-09-18T01:34:24;27.48;;;24.38;;
52456;SDS011;38369;52.840;7.082;2023-09-18T01:36:51;26.73;;;24.10;;
52456;SDS011;38369;52.840;7.082;2023-09-18T01:39:17;27.23;;;24.33;;
52456;SDS011;38369;52.840;7.082;2023-09-18T01:41:45;27.45;;;24.55;;
52456;SDS011;38369;52.840;7.082;2023-09-18T01:44:11;27.85;;;23.45;;
52456;SDS011;38369;52.840;7.082;2023-09-18T01:46:37;27.50;;;24.60;;
52456;SDS011;38369;52.840;7.082;2023-09-18T01:49:04;27.50;;;24.65;;
52456;SDS011;38369;52.840;7.082;2023-09-18T01:51:30;28.45;;;25.63;;
52456;SDS011;38369;52.840;7.082;2023-09-18T01:53:57;27.50;;;24.63;;
52456;SDS011;38369;52.840;7.082;2023-09-18T01:56:23;27.38;;;23.63;;
52456;SDS011;38369;52.840;7.082;2023-09-18T01:58:49;26.95;;;22.65;;
52456;SDS011;38369;52.840;7.082;2023-09-18T02:01:15;23.58;;;21.17;;
52456;SDS011;38369;52.840;7.082;2023-09-18T02:03:41;26.23;;;23.38;;
52456;SDS011;38369;52.840;7.082;2023-09-18T02:06:08;26.50;;;23.77;;
52456;SDS011;38369;52.840;7.082;2023-09-18T02:08:34;26.27;;;23.25;;
52456;SDS011;38369;52.840;7.082;2023-09-18T02:11:00;26.92;;;23.15;;
52456;SDS011;38369;52.840;7.082;2023-09-18T02:13:28;22.60;;;20.38;;
52456;SDS011;38369;52.840;7.082;2023-09-18T02:15:55;24.95;;;22.50;;
52456;SDS011;38369;52.840;7.082;2023-09-18T02:18:21;26.27;;;23.33;;
52456;SDS011;38369;52.840;7.082;2023-09-18T02:20:47;24.52;;;21.90;;
52456;SDS011;38369;52.840;7.082;2023-09-18T02:23:14;24.42;;;21.55;;
52456;SDS011;38369;52.840;7.082;2023-09-18T02:25:40;24.42;;;21.80;;
52456;SDS011;38369;52.840;7.082;2023-09-18T02:28:07;23.20;;;19.92;;
52456;SDS011;38369;52.840;7.082;2023-09-18T02:30:33;23.05;;;20.67;;
52456;SDS011;38369;52.840;7.082;2023-09-18T02:32:59;21.85;;;19.65;;
52456;SDS011;38369;52.840;7.082;2023-09-18T02:35:28;21.50;;;18.95;;
52456;SDS011;38369;52.840;7.082;2023-09-18T02:37:54;21.23;;;19.05;;
52456;SDS011;38369;52.840;7.082;2023-09-18T02:40:20;20.45;;;17.95;;
52456;SDS011;38369;52.840;7.082;2023-09-18T02:42:46;20.25;;;18.08;;
52456;SDS011;38369;52.840;7.082;2023-09-18T02:45:12;21.52;;;18.30;;
52456;SDS011;38369;52.840;7.082;2023-09-18T02:47:38;20.80;;;17.80;;
52456;SDS011;38369;52.840;7.082;2023-09-18T02:50:06;18.42;;;16.63;;
52456;SDS011;38369;52.840;7.082;2023-09-18T02:52:32;18.73;;;16.88;;
52456;SDS011;38369;52.840;7.082;2023-09-18T02:54:58;19.70;;;17.60;;
52456;SDS011;38369;52.840;7.082;2023-09-18T02:57:25;18.02;;;16.20;;
52456;SDS011;38369;52.840;7.082;2023-09-18T02:59:51;26.13;;;18.67;;
52456;SDS011;38369;52.840;7.082;2023-09-18T03:02:17;17.65;;;15.85;;
52456;SDS011;38369;52.840;7.082;2023-09-18T03:04:43;18.83;;;16.83;;
52456;SDS011;38369;52.840;7.082;2023-09-18T03:07:09;18.48;;;16.65;;
52456;SDS011;38369;52.840;7.082;2023-09-18T03:09:35;19.63;;;17.50;;
52456;SDS011;38369;52.840;7.082;2023-09-18T03:12:01;22.25;;;19.02;;
52456;SDS011;38369;52.840;7.082;2023-09-18T03:14:27;19.35;;;17.25;;
52456;SDS011;38369;52.840;7.082;2023-09-18T03:16:53;20.42;;;18.23;;
52456;SDS011;38369;52.840;7.082;2023-09-18T03:19:19;18.17;;;16.13;;
52456;SDS011;38369;52.840;7.082;2023-09-18T03:21:47;21.55;;;17.60;;
52456;SDS011;38369;52.840;7.082;2023-09-18T03:24:13;19.05;;;16.55;;
52456;SDS011;38369;52.840;7.082;2023-09-18T03:26:39;19.15;;;16.63;;
52456;SDS011;38369;52.840;7.082;2023-09-18T03:29:05;17.85;;;15.27;;
52456;SDS011;38369;52.840;7.082;2023-09-18T03:31:31;18.42;;;15.95;;
52456;SDS011;38369;52.840;7.082;2023-09-18T03:33:57;19.27;;;15.45;;
52456;SDS011;38369;52.840;7.082;2023-09-18T03:36:23;17.58;;;15.82;;
52456;SDS011;38369;52.840;7.082;2023-09-18T03:38:50;18.52;;;16.13;;
52456;SDS011;38369;52.840;7.082;2023-09-18T03:41:16;17.42;;;15.63;;
52456;SDS011;38369;52.840;7.082;2023-09-18T03:43:42;24.10;;;17.80;;
52456;SDS011;38369;52.840;7.082;2023-09-18T03:46:08;18.70;;;16.70;;
52456;SDS011;38369;52.840;7.082;2023-09-18T03:48:35;22.05;;;17.85;;
52456;SDS011;38369;52.840;7.082;2023-09-18T03:53:31;15.65;;;13.68;;
52456;SDS011;38369;52.840;7.082;2023-09-18T03:55:58;18.17;;;15.50;;
52456;SDS011;38369;52.840;7.082;2023-09-18T03:58:24;18.90;;;15.98;;
52456;SDS011;38369;52.840;7.082;2023-09-18T04:00:50;22.58;;;15.82;;
52456;SDS011;38369;52.840;7.082;2023-09-18T04:03:17;17.67;;;15.82;;
52456;SDS011;38369;52.840;7.082;2023-09-18T04:05:43;20.40;;;16.45;;
52456;SDS011;38369;52.840;7.082;2023-09-18T04:08:09;18.10;;;16.10;;
52456;SDS011;38369;52.840;7.082;2023-09-18T04:10:36;22.52;;;17.50;;
52456;SDS011;38369;52.840;7.082;2023-09-18T04:13:02;21.55;;;15.20;;
52456;SDS011;38369;52.840;7.082;2023-09-18T04:15:29;21.42;;;16.70;;
52456;SDS011;38369;52.840;7.082;2023-09-18T04:17:55;24.38;;;17.58;;
52456;SDS011;38369;52.840;7.082;2023-09-18T04:20:22;19.58;;;16.60;;
52456;SDS011;38369;52.840;7.082;2023-09-18T04:23:16;18.42;;;15.32;;
52456;SDS011;38369;52.840;7.082;2023-09-18T04:25:34;21.13;;;17.05;;
52456;SDS011;38369;52.840;7.082;2023-09-18T04:28:00;19.40;;;15.38;;
52456;SDS011;38369;52.840;7.082;2023-09-18T04:30:26;17.45;;;15.50;;
52456;SDS011;38369;52.840;7.082;2023-09-18T04:32:52;22.83;;;17.08;;
52456;SDS011;38369;52.840;7.082;2023-09-18T04:35:19;20.92;;;14.73;;
52456;SDS011;38369;52.840;7.082;2023-09-18T04:37:45;18.77;;;15.13;;
52456;SDS011;38369;52.840;7.082;2023-09-18T04:40:11;19.27;;;15.77;;
52456;SDS011;38369;52.840;7.082;2023-09-18T04:42:38;22.98;;;15.48;;
52456;SDS011;38369;52.840;7.082;2023-09-18T04:45:05;23.17;;;16.25;;
52456;SDS011;38369;52.840;7.082;2023-09-18T04:47:31;19.90;;;14.40;;
52456;SDS011;38369;52.840;7.082;2023-09-18T04:49:57;18.17;;;16.17;;
52456;SDS011;38369;52.840;7.082;2023-09-18T04:52:23;25.65;;;17.10;;
52456;SDS011;38369;52.840;7.082;2023-09-18T04:54:49;18.98;;;15.02;;
52456;SDS011;38369;52.840;7.082;2023-09-18T04:57:15;20.13;;;15.02;;
52456;SDS011;38369;52.840;7.082;2023-09-18T04:59:41;21.20;;;16.38;;
52456;SDS011;38369;52.840;7.082;2023-09-18T05:02:07;22.08;;;16.25;;
52456;SDS011;38369;52.840;7.082;2023-09-18T05:04:35;15.75;;;13.70;;
52456;SDS011;38369;52.840;7.082;2023-09-18T05:07:01;19.33;;;15.35;;
52456;SDS011;38369;52.840;7.082;2023-09-18T05:09:27;20.50;;;15.30;;
52456;SDS011;38369;52.840;7.082;2023-09-18T05:11:53;21.95;;;14.80;;
52456;SDS011;38369;52.840;7.082;2023-09-18T05:14:19;18.33;;;13.93;;
52456;SDS011;38369;52.840;7.082;2023-09-18T05:16:45;19.92;;;13.68;;
52456;SDS011;38369;52.840;7.082;2023-09-18T05:19:11;19.80;;;13.40;;
52456;SDS011;38369;52.840;7.082;2023-09-18T05:21:37;16.60;;;13.93;;
52456;SDS011;38369;52.840;7.082;2023-09-18T05:24:03;19.45;;;12.88;;
52456;SDS011;38369;52.840;7.082;2023-09-18T05:26:30;15.52;;;12.68;;
52456;SDS011;38369;52.840;7.082;2023-09-18T05:28:56;15.27;;;12.45;;
52456;SDS011;38369;52.840;7.082;2023-09-18T05:31:23;16.63;;;12.98;;
52456;SDS011;38369;52.840;7.082;2023-09-18T05:33:49;18.95;;;13.77;;
52456;SDS011;38369;52.840;7.082;2023-09-18T05:36:15;18.42;;;13.05;;
52456;SDS011;38369;52.840;7.082;2023-09-18T05:38:42;16.60;;;11.68;;
52456;SDS011;38369;52.840;7.082;2023-09-18T05:41:11;14.75;;;12.18;;
52456;SDS011;38369;52.840;7.082;2023-09-18T05:43:37;17.60;;;12.10;;
52456;SDS011;38369;52.840;7.082;2023-09-18T05:46:03;16.15;;;12.32;;
52456;SDS011;38369;52.840;7.082;2023-09-18T05:48:29;18.95;;;12.80;;
52456;SDS011;38369;52.840;7.082;2023-09-18T05:50:56;20.30;;;13.45;;
52456;SDS011;38369;52.840;7.082;2023-09-18T05:53:22;17.42;;;12.32;;
52456;SDS011;38369;52.840;7.082;2023-09-18T05:55:48;19.02;;;13.57;;
52456;SDS011;38369;52.840;7.082;2023-09-18T05:58:14;13.38;;;11.55;;
52456;SDS011;38369;52.840;7.082;2023-09-18T06:00:40;19.98;;;11.52;;
52456;SDS011;38369;52.840;7.082;2023-09-18T06:03:06;14.35;;;11.48;;
52456;SDS011;38369;52.840;7.082;2023-09-18T06:05:34;16.02;;;10.95;;
52456;SDS011;38369;52.840;7.082;2023-09-18T06:08:00;11.80;;;10.43;;
52456;SDS011;38369;52.840;7.082;2023-09-18T06:10:27;22.15;;;11.60;;
52456;SDS011;38369;52.840;7.082;2023-09-18T06:12:53;14.88;;;9.75;;
52456;SDS011;38369;52.840;7.082;2023-09-18T06:15:19;15.80;;;10.48;;
52456;SDS011;38369;52.840;7.082;2023-09-18T06:17:46;13.82;;;11.63;;
52456;SDS011;38369;52.840;7.082;2023-09-18T06:20:12;13.93;;;9.00;;
52456;SDS011;38369;52.840;7.082;2023-09-18T06:22:39;15.90;;;10.00;;
52456;SDS011;38369;52.840;7.082;2023-09-18T06:25:06;13.23;;;9.40;;
52456;SDS011;38369;52.840;7.082;2023-09-18T06:27:36;12.57;;;9.88;;
52456;SDS011;38369;52.840;7.082;2023-09-18T06:32:28;20.90;;;10.38;;
52456;SDS011;38369;52.840;7.082;2023-09-18T06:34:54;13.90;;;9.23;;
52456;SDS011;38369;52.840;7.082;2023-09-18T06:37:22;15.27;;;10.25;;
52456;SDS011;38369;52.840;7.082;2023-09-18T06:39:48;14.65;;;10.32;;
52456;SDS011;38369;52.840;7.082;2023-09-18T06:42:14;15.23;;;9.85;;
52456;SDS011;38369;52.840;7.082;2023-09-18T06:44:40;17.10;;;10.07;;
52456;SDS011;38369;52.840;7.082;2023-09-18T06:47:06;20.23;;;10.13;;
52456;SDS011;38369;52.840;7.082;2023-09-18T06:49:33;14.05;;;10.30;;
52456;SDS011;38369;52.840;7.082;2023-09-18T06:51:59;16.70;;;11.10;;
52456;SDS011;38369;52.840;7.082;2023-09-18T06:54:25;15.38;;;10.48;;
52456;SDS011;38369;52.840;7.082;2023-09-18T06:56:51;18.42;;;10.15;;
52456;SDS011;38369;52.840;7.082;2023-09-18T06:59:17;22.42;;;10.55;;
52456;SDS011;38369;52.840;7.082;2023-09-18T07:01:44;18.15;;;11.10;;
52456;SDS011;38369;52.840;7.082;2023-09-18T07:04:10;16.38;;;10.68;;
52456;SDS011;38369;52.840;7.082;2023-09-18T07:06:36;12.80;;;10.20;;
52456;SDS011;38369;52.840;7.082;2023-09-18T07:09:02;12.82;;;10.82;;
52456;SDS011;38369;52.840;7.082;2023-09-18T07:11:30;20.38;;;11.70;;
52456;SDS011;38369;52.840;7.082;2023-09-18T07:13:56;14.60;;;11.18;;
52456;SDS011;38369;52.840;7.082;2023-09-18T07:16:22;18.80;;;11.73;;
52456;SDS011;38369;52.840;7.082;2023-09-18T07:18:48;15.63;;;11.50;;
52456;SDS011;38369;52.840;7.082;2023-09-18T07:21:14;20.30;;;12.35;;
52456;SDS011;38369;52.840;7.082;2023-09-18T07:23:40;20.45;;;11.75;;
52456;SDS011;38369;52.840;7.082;2023-09-18T07:26:06;18.55;;;12.73;;
52456;SDS011;38369;52.840;7.082;2023-09-18T07:28:32;16.45;;;12.38;;
52456;SDS011;38369;52.840;7.082;2023-09-18T07:31:05;15.93;;;12.65;;
52456;SDS011;38369;52.840;7.082;2023-09-18T07:33:32;17.85;;;13.38;;
52456;SDS011;38369;52.840;7.082;2023-09-18T07:35:58;16.50;;;12.73;;
52456;SDS011;38369;52.840;7.082;2023-09-18T07:38:24;21.85;;;13.57;;
52456;SDS011;38369;52.840;7.082;2023-09-18T07:40:50;20.75;;;14.63;;
52456;SDS011;38369;52.840;7.082;2023-09-18T07:43:16;21.50;;;14.77;;
52456;SDS011;38369;52.840;7.082;2023-09-18T07:45:42;16.85;;;14.05;;
52456;SDS011;38369;52.840;7.082;2023-09-18T07:48:08;17.77;;;13.80;;
52456;SDS011;38369;52.840;7.082;2023-09-18T07:50:34;18.23;;;13.63;;
52456;SDS011;38369;52.840;7.082;2023-09-18T07:53:01;19.38;;;13.88;;
52456;SDS011;38369;52.840;7.082;2023-09-18T07:55:27;19.50;;;14.85;;
52456;SDS011;38369;52.840;7.082;2023-09-18T07:57:54;18.70;;;14.75;;
52456;SDS011;38369;52.840;7.082;2023-09-18T08:00:20;21.88;;;14.55;;
52456;SDS011;38369;52.840;7.082;2023-09-18T08:02:47;18.75;;;15.32;;
52456;SDS011;38369;52.840;7.082;2023-09-18T08:05:15;19.50;;;14.77;;
52456;SDS011;38369;52.840;7.082;2023-09-18T08:07:41;19.98;;;15.90;;
52456;SDS011;38369;52.840;7.082;2023-09-18T08:10:07;16.40;;;14.35;;
52456;SDS011;38369;52.840;7.082;2023-09-18T08:12:34;17.10;;;15.07;;
52456;SDS011;38369;52.840;7.082;2023-09-18T08:15:00;23.55;;;15.90;;
52456;SDS011;38369;52.840;7.082;2023-09-18T08:17:26;22.27;;;15.60;;
52456;SDS011;38369;52.840;7.082;2023-09-18T08:19:52;21.60;;;15.52;;
52456;SDS011;38369;52.840;7.082;2023-09-18T08:22:19;21.48;;;15.38;;
52456;SDS011;38369;52.840;7.082;2023-09-18T08:24:46;23.05;;;15.30;;
52456;SDS011;38369;52.840;7.082;2023-09-18T08:27:14;22.98;;;15.23;;
52456;SDS011;38369;52.840;7.082;2023-09-18T08:32:09;17.15;;;13.35;;
52456;SDS011;38369;52.840;7.082;2023-09-18T08:34:35;19.25;;;14.02;;
52456;SDS011;38369;52.840;7.082;2023-09-18T08:37:04;18.30;;;12.38;;
52456;SDS011;38369;52.840;7.082;2023-09-18T08:39:30;15.43;;;12.33;;
52456;SDS011;38369;52.840;7.082;2023-09-18T08:42:05;16.75;;;12.82;;
52456;SDS011;38369;52.840;7.082;2023-09-18T08:44:33;18.42;;;13.10;;
52456;SDS011;38369;52.840;7.082;2023-09-18T08:47:00;23.02;;;14.20;;
52456;SDS011;38369;52.840;7.082;2023-09-18T08:49:27;20.75;;;13.50;;
52456;SDS011;38369;52.840;7.082;2023-09-18T08:51:54;18.10;;;13.90;;
52456;SDS011;38369;52.840;7.082;2023-09-18T08:54:21;15.43;;;13.05;;
52456;SDS011;38369;52.840;7.082;2023-09-18T08:56:49;18.05;;;14.00;;
52456;SDS011;38369;52.840;7.082;2023-09-18T08:59:15;18.17;;;13.40;;
52456;SDS011;38369;52.840;7.082;2023-09-18T09:01:41;24.85;;;13.80;;
52456;SDS011;38369;52.840;7.082;2023-09-18T09:04:07;20.13;;;14.25;;
52456;SDS011;38369;52.840;7.082;2023-09-18T09:06:33;21.50;;;14.93;;
52456;SDS011;38369;52.840;7.082;2023-09-18T09:09:01;19.63;;;15.05;;
52456;SDS011;38369;52.840;7.082;2023-09-18T09:11:27;21.60;;;14.27;;
52456;SDS011;38369;52.840;7.082;2023-09-18T09:16:46;17.80;;;13.90;;
52456;SDS011;38369;52.840;7.082;2023-09-18T09:19:13;24.42;;;14.25;;
52456;SDS011;38369;52.840;7.082;2023-09-18T09:21:40;19.02;;;13.80;;
52456;SDS011;38369;52.840;7.082;2023-09-18T09:24:08;20.33;;;13.65;;
52456;SDS011;38369;52.840;7.082;2023-09-18T09:26:39;17.10;;;11.98;;
52456;SDS011;38369;52.840;7.082;2023-09-18T09:29:18;18.63;;;13.07;;
52456;SDS011;38369;52.840;7.082;2023-09-18T09:31:46;15.38;;;11.95;;
52456;SDS011;38369;52.840;7.082;2023-09-18T09:34:16;13.68;;;11.15;;
52456;SDS011;38369;52.840;7.082;2023-09-18T09:36:53;17.85;;;11.60;;
52456;SDS011;38369;52.840;7.082;2023-09-18T09:41:47;17.05;;;10.70;;
52456;SDS011;38369;52.840;7.082;2023-09-18T09:44:13;12.60;;;10.80;;
52456;SDS011;38369;52.840;7.082;2023-09-18T09:46:49;18.20;;;11.32;;
52456;SDS011;38369;52.840;7.082;2023-09-18T09:49:16;14.98;;;9.48;;
52456;SDS011;38369;52.840;7.082;2023-09-18T09:51:44;12.45;;;9.20;;
52456;SDS011;38369;52.840;7.082;2023-09-18T09:54:11;10.88;;;8.68;;
52456;SDS011;38369;52.840;7.082;2023-09-18T09:56:42;12.40;;;9.23;;
52456;SDS011;38369;52.840;7.082;2023-09-18T09:59:09;11.80;;;8.80;;
52456;SDS011;38369;52.840;7.082;2023-09-18T10:01:37;9.07;;;7.65;;
52456;SDS011;38369;52.840;7.082;2023-09-18T10:04:13;12.80;;;7.47;;
52456;SDS011;38369;52.840;7.082;2023-09-18T10:06:52;21.25;;;8.30;;
52456;SDS011;38369;52.840;7.082;2023-09-18T10:09:19;11.27;;;8.50;;
52456;SDS011;38369;52.840;7.082;2023-09-18T10:11:49;8.40;;;7.15;;
52456;SDS011;38369;52.840;7.082;2023-09-18T10:14:21;11.98;;;7.40;;
52456;SDS011;38369;52.840;7.082;2023-09-18T10:16:53;9.98;;;6.78;;
52456;SDS011;38369;52.840;7.082;2023-09-18T10:19:27;7.18;;;6.28;;
52456;SDS011;38369;52.840;7.082;2023-09-18T10:22:01;12.75;;;7.18;;
52456;SDS011;38369;52.840;7.082;2023-09-18T10:24:34;10.75;;;7.22;;
52456;SDS011;38369;52.840;7.082;2023-09-18T10:27:04;6.82;;;6.05;;
52456;SDS011;38369;52.840;7.082;2023-09-18T10:29:32;8.73;;;6.20;;
52456;SDS011;38369;52.840;7.082;2023-09-18T10:32:02;10.05;;;6.05;;
52456;SDS011;38369;52.840;7.082;2023-09-18T10:34:29;6.70;;;5.22;;
52456;SDS011;38369;52.840;7.082;2023-09-18T10:36:58;8.43;;;5.20;;
52456;SDS011;38369;52.840;7.082;2023-09-18T10:39:25;7.22;;;5.75;;
52456;SDS011;38369;52.840;7.082;2023-09-18T10:41:52;5.88;;;4.15;;
52456;SDS011;38369;52.840;7.082;2023-09-18T10:44:19;7.60;;;4.78;;
52456;SDS011;38369;52.840;7.082;2023-09-18T10:46:45;5.25;;;4.07;;
52456;SDS011;38369;52.840;7.082;2023-09-18T10:49:12;6.97;;;4.35;;
52456;SDS011;38369;52.840;7.082;2023-09-18T10:51:38;6.15;;;4.30;;
52456;SDS011;38369;52.840;7.082;2023-09-18T10:54:10;12.25;;;4.32;;
52456;SDS011;38369;52.840;7.082;2023-09-18T10:59:05;7.55;;;4.57;;
52456;SDS011;38369;52.840;7.082;2023-09-18T11:01:32;7.65;;;3.97;;
52456;SDS011;38369;52.840;7.082;2023-09-18T11:04:02;7.30;;;3.95;;
52456;SDS011;38369;52.840;7.082;2023-09-18T11:06:29;7.50;;;4.55;;
52456;SDS011;38369;52.840;7.082;2023-09-18T11:08:59;8.77;;;4.57;;
52456;SDS011;38369;52.840;7.082;2023-09-18T11:11:29;7.40;;;3.63;;
52456;SDS011;38369;52.840;7.082;2023-09-18T11:13:58;4.57;;;3.45;;
52456;SDS011;38369;52.840;7.082;2023-09-18T11:18:56;5.38;;;3.42;;
52456;SDS011;38369;52.840;7.082;2023-09-18T11:21:31;10.60;;;3.22;;
52456;SDS011;38369;52.840;7.082;2023-09-18T11:24:02;4.88;;;2.78;;
52456;SDS011;38369;52.840;7.082;2023-09-18T11:26:29;5.25;;;2.80;;
52456;SDS011;38369;52.840;7.082;2023-09-18T11:28:58;5.30;;;2.92;;
52456;SDS011;38369;52.840;7.082;2023-09-18T11:34:13;6.70;;;3.17;;
52456;SDS011;38369;52.840;7.082;2023-09-18T11:36:40;4.95;;;2.78;;
52456;SDS011;38369;52.840;7.082;2023-09-18T11:39:06;5.38;;;2.47;;
52456;SDS011;38369;52.840;7.082;2023-09-18T11:41:34;5.07;;;2.75;;
52456;SDS011;38369;52.840;7.082;2023-09-18T11:46:39;4.05;;;2.35;;
52456;SDS011;38369;52.840;7.082;2023-09-18T11:49:07;4.63;;;2.60;;
52456;SDS011;38369;52.840;7.082;2023-09-18T11:51:35;4.68;;;2.70;;
52456;SDS011;38369;52.840;7.082;2023-09-18T11:54:01;6.00;;;2.60;;
52456;SDS011;38369;52.840;7.082;2023-09-18T11:56:28;8.80;;;2.83;;
52456;SDS011;38369;52.840;7.082;2023-09-18T11:58:54;5.50;;;2.30;;
52456;SDS011;38369;52.840;7.082;2023-09-18T12:01:20;2.50;;;1.73;;
52456;SDS011;38369;52.840;7.082;2023-09-18T12:03:53;5.63;;;2.50;;
52456;SDS011;38369;52.840;7.082;2023-09-18T12:06:20;4.53;;;2.30;;
52456;SDS011;38369;52.840;7.082;2023-09-18T12:08:46;3.65;;;1.83;;
52456;SDS011;38369;52.840;7.082;2023-09-18T12:11:12;6.47;;;1.95;;
52456;SDS011;38369;52.840;7.082;2023-09-18T12:13:42;10.90;;;3.10;;
52456;SDS011;38369;52.840;7.082;2023-09-18T12:16:08;3.53;;;1.85;;
52456;SDS011;38369;52.840;7.082;2023-09-18T12:18:35;5.07;;;2.13;;
52456;SDS011;38369;52.840;7.082;2023-09-18T12:21:05;6.90;;;2.30;;
52456;SDS011;38369;52.840;7.082;2023-09-18T12:23:41;4.47;;;2.47;;
52456;SDS011;38369;52.840;7.082;2023-09-18T12:26:11;3.15;;;2.15;;
52456;SDS011;38369;52.840;7.082;2023-09-18T12:28:43;3.08;;;1.77;;
52456;SDS011;38369;52.840;7.082;2023-09-18T12:33:36;4.63;;;2.10;;
52456;SDS011;38369;52.840;7.082;2023-09-18T12:36:03;3.40;;;1.98;;
52456;SDS011;38369;52.840;7.082;2023-09-18T12:38:30;5.47;;;2.20;;
52456;SDS011;38369;52.840;7.082;2023-09-18T12:40:57;7.32;;;1.88;;
52456;SDS011;38369;52.840;7.082;2023-09-18T12:43:40;3.95;;;1.70;;
52456;SDS011;38369;52.840;7.082;2023-09-18T12:46:07;5.07;;;2.20;;
52456;SDS011;38369;52.840;7.082;2023-09-18T12:48:37;6.13;;;1.98;;
52456;SDS011;38369;52.840;7.082;2023-09-18T12:51:04;3.72;;;1.65;;
52456;SDS011;38369;52.840;7.082;2023-09-18T12:53:30;6.72;;;1.80;;
52456;SDS011;38369;52.840;7.082;2023-09-18T12:56:04;4.07;;;1.92;;
52456;SDS011;38369;52.840;7.082;2023-09-18T12:58:30;3.00;;;2.00;;
52456;SDS011;38369;52.840;7.082;2023-09-18T13:00:57;5.80;;;2.05;;
52456;SDS011;38369;52.840;7.082;2023-09-18T13:03:23;2.53;;;1.50;;
52456;SDS011;38369;52.840;7.082;2023-09-18T13:05:49;4.40;;;2.33;;
52456;SDS011;38369;52.840;7.082;2023-09-18T13:08:22;4.50;;;2.00;;
52456;SDS011;38369;52.840;7.082;2023-09-18T13:10:49;5.20;;;2.50;;
52456;SDS011;38369;52.840;7.082;2023-09-18T13:13:19;4.32;;;2.10;;
52456;SDS011;38369;52.840;7.082;2023-09-18T13:15:45;6.50;;;2.53;;
52456;SDS011;38369;52.840;7.082;2023-09-18T13:18:13;3.55;;;2.20;;
52456;SDS011;38369;52.840;7.082;2023-09-18T13:20:39;5.88;;;2.25;;
52456;SDS011;38369;52.840;7.082;2023-09-18T13:23:05;4.35;;;2.90;;
52456;SDS011;38369;52.840;7.082;2023-09-18T13:25:32;3.20;;;2.33;;
52456;SDS011;38369;52.840;7.082;2023-09-18T13:27:59;5.70;;;2.33;;
52456;SDS011;38369;52.840;7.082;2023-09-18T13:30:25;4.90;;;2.28;;
52456;SDS011;38369;52.840;7.082;2023-09-18T13:33:00;6.47;;;2.80;;
52456;SDS011;38369;52.840;7.082;2023-09-18T13:35:26;4.20;;;2.70;;
52456;SDS011;38369;52.840;7.082;2023-09-18T13:37:52;4.65;;;2.35;;
52456;SDS011;38369;52.840;7.082;2023-09-18T13:40:18;6.60;;;2.90;;
52456;SDS011;38369;52.840;7.082;2023-09-18T13:42:44;8.00;;;2.53;;
52456;SDS011;38369;52.840;7.082;2023-09-18T13:45:10;4.13;;;2.55;;
52456;SDS011;38369;52.840;7.082;2023-09-18T13:47:36;8.77;;;3.05;;
52456;SDS011;38369;52.840;7.082;2023-09-18T13:50:03;9.80;;;3.10;;
52456;SDS011;38369;52.840;7.082;2023-09-18T13:52:30;4.38;;;2.60;;
52456;SDS011;38369;52.840;7.082;2023-09-18T13:54:56;6.03;;;2.90;;
52456;SDS011;38369;52.840;7.082;2023-09-18T13:57:22;6.85;;;3.15;;
52456;SDS011;38369;52.840;7.082;2023-09-18T13:59:49;5.63;;;2.92;;
52456;SDS011;38369;52.840;7.082;2023-09-18T14:02:16;7.00;;;2.90;;
52456;SDS011;38369;52.840;7.082;2023-09-18T14:04:42;3.70;;;2.92;;
52456;SDS011;38369;52.840;7.082;2023-09-18T14:07:09;7.25;;;3.00;;
52456;SDS011;38369;52.840;7.082;2023-09-18T14:09:36;5.55;;;2.85;;
52456;SDS011;38369;52.840;7.082;2023-09-18T14:12:02;8.18;;;3.55;;
52456;SDS011;38369;52.840;7.082;2023-09-18T14:14:29;4.32;;;2.78;;
52456;SDS011;38369;52.840;7.082;2023-09-18T14:16:58;10.55;;;3.42;;
52456;SDS011;38369;52.840;7.082;2023-09-18T14:19:24;5.93;;;3.20;;
52456;SDS011;38369;52.840;7.082;2023-09-18T14:21:50;6.72;;;2.95;;
52456;SDS011;38369;52.840;7.082;2023-09-18T14:24:17;5.78;;;2.75;;
52456;SDS011;38369;52.840;7.082;2023-09-18T14:26:47;4.65;;;2.50;;
52456;SDS011;38369;52.840;7.082;2023-09-18T14:29:14;7.28;;;3.10;;
52456;SDS011;38369;52.840;7.082;2023-09-18T14:31:40;6.35;;;2.70;;
52456;SDS011;38369;52.840;7.082;2023-09-18T14:34:06;6.53;;;2.83;;
52456;SDS011;38369;52.840;7.082;2023-09-18T14:36:33;4.80;;;2.95;;
52456;SDS011;38369;52.840;7.082;2023-09-18T14:39:00;3.90;;;2.40;;
52456;SDS011;38369;52.840;7.082;2023-09-18T14:41:26;6.85;;;3.08;;
52456;SDS011;38369;52.840;7.082;2023-09-18T14:43:52;5.43;;;3.15;;
52456;SDS011;38369;52.840;7.082;2023-09-18T14:46:19;5.38;;;3.28;;
52456;SDS011;38369;52.840;7.082;2023-09-18T14:48:46;6.10;;;2.90;;
52456;SDS011;38369;52.840;7.082;2023-09-18T14:51:12;4.10;;;2.50;;
52456;SDS011;38369;52.840;7.082;2023-09-18T14:53:38;4.38;;;2.80;;
52456;SDS011;38369;52.840;7.082;2023-09-18T14:56:04;5.05;;;3.25;;
52456;SDS011;38369;52.840;7.082;2023-09-18T14:58:30;6.47;;;3.40;;